Accueil
METAR-TAF:

METAR-TAF

Aéroports :

Aéroport de Shoreham

Brighton, Angleterre

latitude: 50-50N, longitude: 000-17W, altitude: 2 m

Observation

Le bulletin a été fait il y a 3 heures et 28 minutes, à 16:50 UTC
Vent 11 kt de sud-ouest
Température 16°C
Humidité 77%
Pression 1028 hPa
Visibilité 10 km ou plus
Nuages épars à une hauteur de 2100 ft

METAR: EGKA 061650Z 23011KT 9999 SCT021 16/12 Q1028

Heure: 21:18 (20:18 UTC)

Prévision

Le bulletin a été fait il y a 6 heures et 21 minutes, à 13:57 UTC
Prévision valable du 06 à 15 UTC au 06 à 19 UTC
Vent 11 kt de sud-ouest
Visibilité 10 km ou plus
Nuages épars à une hauteur de 2000 ft

TAF: EGKA 061357Z 0615/0619 23011KT 9999 SCT020

Observations et prévisions météorologiques de plus de 4000 aéroports (messages METAR et TAF).

Les stations disponibles sont représentées par des disques jaunes et rouges sur la carte.

Passer la souris dessus pour voir le nom de la station.

Cliquer dessus pour voir les observations et prévisions météorologiques.

Pour changer de carte: cliquez sur les boutons verts avec une croix noire pour zoomer, sur le bouton vert avec un tiret pour effectuer un zoom arrière, ou sur les flèches vertes pour les cartes adjacentes.


METAR-TAF: